Time,TemperatureF,DewpointF,PressureIn,WindDirection,WindDirectionDegrees,WindSpeedMPH,WindSpeedGustMPH,Humidity,HourlyPrecipIn,Conditions,Clouds,dailyrainin,SoftwareType,DateUTC
2014-01-24 00:22:00,-6.0,-99.9,-100.00,SW,226,15.0,18.0,-999,0.00,,,-99.99,,2014-01-24 06:22:00,
2014-01-24 00:52:00,-6.0,-99.9,-100.00,SW,222,14.0,18.0,-999,0.00,,,-99.99,,2014-01-24 06:52:00,
2014-01-24 01:22:00,-8.0,-99.9,-100.00,WSW,240,16.0,19.0,-999,0.00,,,-99.99,,2014-01-24 07:22:00,
2014-01-24 01:52:00,-8.0,-99.9,-100.00,WSW,255,18.0,21.0,-999,0.00,,,-99.99,,2014-01-24 07:52:00,
2014-01-24 02:22:00,-7.0,-99.9,-100.00,SW,226,18.0,21.0,-999,0.00,,,-99.99,,2014-01-24 08:22:00,
2014-01-24 02:53:00,-7.0,-99.9,-100.00,WSW,238,16.0,20.0,-999,0.00,,,-99.99,,2014-01-24 08:53:00,
2014-01-24 03:22:00,-7.0,-99.9,-100.00,SW,226,20.0,25.0,-999,0.00,,,-99.99,,2014-01-24 09:22:00,
2014-01-24 03:23:00,-7.0,-99.9,-100.00,WSW,240,23.0,29.0,-999,0.00,,,-99.99,,2014-01-24 09:23:00,
2014-01-24 03:53:00,-7.0,-99.9,-100.00,WSW,240,23.0,29.0,-999,0.00,,,-99.99,,2014-01-24 09:53:00,
2014-01-24 04:03:00,-7.0,-99.9,-100.00,WSW,240,23.0,29.0,-999,0.00,,,-99.99,,2014-01-24 10:03:00,
2014-01-24 04:13:00,-7.0,-99.9,-100.00,WSW,240,23.0,29.0,-999,0.00,,,-99.99,,2014-01-24 10:13:00,
2014-01-24 05:22:00,-3.0,-99.9,-100.00,SW,233,21.0,27.0,-999,0.00,,,-99.99,,2014-01-24 11:22:00,
2014-01-24 06:52:00,1.0,-99.9,-100.00,South,188,19.0,24.0,-999,0.00,,,-99.99,,2014-01-24 12:52:00,
2014-01-24 07:22:00,4.0,-99.9,-100.00,SSW,212,21.0,26.0,-999,0.00,,,-99.99,,2014-01-24 13:22:00,
2014-01-24 07:32:00,4.0,-99.9,-100.00,SSW,212,21.0,26.0,-999,0.00,,,-99.99,,2014-01-24 13:32:00,
2014-01-24 07:52:00,4.0,-99.9,-100.00,SSW,212,21.0,26.0,-999,0.00,,,-99.99,,2014-01-24 13:52:00,
2014-01-24 08:22:00,8.0,-99.9,-100.00,SW,219,22.0,31.0,-999,0.00,,,-99.99,,2014-01-24 14:22:00,
2014-01-24 08:32:00,8.0,-99.9,-100.00,SW,219,22.0,31.0,-999,0.00,,,-99.99,,2014-01-24 14:32:00,
2014-01-24 08:52:00,9.0,-99.9,-100.00,SW,218,20.0,27.0,-999,0.00,,,-99.99,,2014-01-24 14:52:00,
2014-01-24 09:22:00,9.0,-99.9,-100.00,SW,225,25.0,33.0,-999,0.00,,,-99.99,,2014-01-24 15:22:00,
2014-01-24 09:53:00,9.0,-99.9,-100.00,SW,215,24.0,35.0,-999,0.00,,,-99.99,,2014-01-24 15:53:00,
2014-01-24 10:13:00,9.0,-99.9,-100.00,SW,232,25.0,31.0,-999,0.00,,,-99.99,,2014-01-24 16:13:00,
2014-01-24 10:23:00,9.0,-99.9,-100.00,SW,232,25.0,31.0,-999,0.00,,,-99.99,,2014-01-24 16:23:00,
2014-01-24 10:42:00,9.0,-99.9,-100.00,SW,233,24.0,32.0,-999,0.00,,,-99.99,,2014-01-24 16:42:00,
2014-01-24 10:53:00,9.0,-99.9,-100.00,SW,233,24.0,32.0,-999,0.00,,,-99.99,,2014-01-24 16:53:00,
2014-01-24 11:23:00,10.0,-99.9,-100.00,SW,217,27.0,34.0,-999,0.00,,,-99.99,,2014-01-24 17:23:00,
2014-01-24 11:53:00,11.0,-99.9,-100.00,SW,219,24.0,30.0,-999,0.00,,,-99.99,,2014-01-24 17:53:00,
2014-01-24 12:22:00,12.0,-99.9,-100.00,SW,233,24.0,32.0,-999,0.00,,,-99.99,,2014-01-24 18:22:00,
2014-01-24 12:52:00,14.0,-99.9,-100.00,WSW,250,24.0,28.0,-999,0.00,,,-99.99,,2014-01-24 18:52:00,
2014-01-24 13:02:00,14.0,-99.9,-100.00,WSW,250,24.0,28.0,-999,0.00,,,-99.99,,2014-01-24 19:02:00,
2014-01-24 13:22:00,15.0,-99.9,-100.00,WSW,250,20.0,25.0,-999,0.00,,,-99.99,,2014-01-24 19:22:00,
2014-01-24 13:32:00,15.0,-99.9,-100.00,WSW,250,20.0,25.0,-999,0.00,,,-99.99,,2014-01-24 19:32:00,
2014-01-24 13:42:00,15.0,-99.9,-100.00,WSW,250,20.0,25.0,-999,0.00,,,-99.99,,2014-01-24 19:42:00,
2014-01-24 13:52:00,15.0,-99.9,-100.00,WSW,250,20.0,25.0,-999,0.00,,,-99.99,,2014-01-24 19:52:00,
2014-01-24 14:11:00,15.0,-99.9,-100.00,WSW,238,23.0,27.0,-999,0.00,,,-99.99,,2014-01-24 20:11:00,
2014-01-24 14:22:00,15.0,-99.9,-100.00,WSW,238,23.0,27.0,-999,0.00,,,-99.99,,2014-01-24 20:22:00,
2014-01-24 14:52:00,16.0,-99.9,-100.00,SW,222,21.0,26.0,-999,0.00,,,-99.99,,2014-01-24 20:52:00,
2014-01-24 15:12:00,15.0,-99.9,-100.00,SW,225,20.0,27.0,-999,0.00,,,-99.99,,2014-01-24 21:12:00,
2014-01-24 15:22:00,15.0,-99.9,-100.00,SW,225,20.0,27.0,-999,0.00,,,-99.99,,2014-01-24 21:22:00,
2014-01-24 15:23:00,16.0,-99.9,-100.00,SW,218,20.0,23.0,-999,0.00,,,-99.99,,2014-01-24 21:23:00,
2014-01-24 15:54:00,16.0,-99.9,-100.00,SW,218,20.0,23.0,-999,0.00,,,-99.99,,2014-01-24 21:54:00,
2014-01-24 16:03:00,16.0,-99.9,-100.00,SW,218,20.0,23.0,-999,0.00,,,-99.99,,2014-01-24 22:03:00,
2014-01-24 16:13:00,16.0,-99.9,-100.00,SW,218,20.0,23.0,-999,0.00,,,-99.99,,2014-01-24 22:13:00,
2014-01-24 16:53:00,16.0,-99.9,-100.00,SW,231,22.0,28.0,-999,0.00,,,-99.99,,2014-01-24 22:53:00,
2014-01-24 17:22:00,16.0,-99.9,-100.00,SW,224,20.0,27.0,-999,0.00,,,-99.99,,2014-01-24 23:22:00,
2014-01-24 17:53:00,16.0,-99.9,-100.00,SW,224,21.0,25.0,-999,0.00,,,-99.99,,2014-01-24 23:53:00,
2014-01-24 18:02:00,16.0,-99.9,-100.00,SW,224,21.0,25.0,-999,0.00,,,-99.99,,2014-01-25 00:02:00,
2014-01-24 18:22:00,16.0,-99.9,-100.00,WSW,253,19.0,24.0,-999,0.00,,,-99.99,,2014-01-25 00:22:00,
2014-01-24 18:52:00,16.0,-99.9,-100.00,SW,233,20.0,24.0,-999,0.00,,,-99.99,,2014-01-25 00:52:00,
2014-01-24 19:02:00,16.0,-99.9,-100.00,SW,233,20.0,24.0,-999,0.00,,,-99.99,,2014-01-25 01:02:00,
2014-01-24 19:22:00,17.0,-99.9,-100.00,WSW,246,22.0,28.0,-999,0.00,,,-99.99,,2014-01-25 01:22:00,
2014-01-24 19:52:00,17.0,-99.9,-100.00,SW,222,21.0,24.0,-999,0.00,,,-99.99,,2014-01-25 01:52:00,
2014-01-24 20:22:00,18.0,-99.9,-100.00,SW,226,16.0,22.0,-999,0.00,,,-99.99,,2014-01-25 02:22:00,
2014-01-24 20:52:00,19.0,-99.9,-100.00,SW,225,19.0,24.0,-999,0.00,,,-99.99,,2014-01-25 02:52:00,
2014-01-24 21:22:00,19.0,-99.9,-100.00,WSW,238,17.0,22.0,-999,0.00,,,-99.99,,2014-01-25 03:22:00,
2014-01-24 21:33:00,19.0,-99.9,-100.00,WSW,238,17.0,22.0,-999,0.00,,,-99.99,,2014-01-25 03:33:00,
2014-01-24 21:53:00,19.0,-99.9,-100.00,WSW,240,18.0,22.0,-999,0.00,,,-99.99,,2014-01-25 03:53:00,
2014-01-24 22:23:00,20.0,-99.9,-100.00,WSW,242,19.0,23.0,-999,0.00,,,-99.99,,2014-01-25 04:23:00,
2014-01-24 22:53:00,20.0,-99.9,-100.00,WSW,238,16.0,19.0,-999,0.00,,,-99.99,,2014-01-25 04:53:00,
2014-01-24 23:22:00,21.0,-99.9,-100.00,WSW,249,15.0,18.0,-999,0.00,,,-99.99,,2014-01-25 05:22:00,
2014-01-24 23:43:00,20.0,-99.9,-100.00,WSW,257,16.0,19.0,-999,0.00,,,-99.99,,2014-01-25 05:43:00,
2014-01-24 23:52:00,20.0,-99.9,-100.00,WSW,257,16.0,19.0,-999,0.00,,,-99.99,,2014-01-25 05:52:00,